TVF9827 GMMX-LFRG
Flight info
| Callsign | TVF9827 |
|---|---|
| Flight time | 2h 41m |
| Altitude | 36000 |
| Route | OBOGA UG850 VALBA UZ801 TOLSI UG5 KORIS DCT SVL DCT HIJ DCT RUSEM DCT SOTUK DCT USOKO DCT TLD DCT SIE DCT EDIGO DCT DGO DCT ABRIX DCT CNA DCT ADABI DCT BOKNO UN858 VANAD UN859 BENAR A34 LGL |
| Aircraft | B738/M-SDE2E3FGHIRWXY/LB1 |
Departure
| Time | 2026-05-06 12:16 |
|---|---|
| Airport | Marrakesh Menara Airport (GMMX) |
Arrival
| Time | 2026-05-06 14:58 |
|---|---|
| Airport | Deauville Normandie airport (LFRG) |
| Time | Latitude | Longitude | Altitude | Speed | Heading |
|---|---|---|---|---|---|
| 2026-05-06 12:02 | 31.60290 | -8.02405 | 1548 ft | 0 kts | 186° |
| 2026-05-06 12:05 | 31.60317 | -8.02402 | 1548 ft | 6 kts | 185° |
| 2026-05-06 12:06 | 31.60358 | -8.02398 | 1537 ft | 6 kts | 185° |
| 2026-05-06 12:06 | 31.60398 | -8.02400 | 1545 ft | 6 kts | 141° |
| 2026-05-06 12:06 | 31.60410 | -8.02419 | 1537 ft | 0 kts | 99° |
| 2026-05-06 12:11 | 31.60403 | -8.02336 | 1548 ft | 18 kts | 94° |
| 2026-05-06 12:11 | 31.60388 | -8.02175 | 1548 ft | 19 kts | 97° |
| 2026-05-06 12:11 | 31.60409 | -8.02038 | 1545 ft | 19 kts | 28° |
| 2026-05-06 12:11 | 31.60443 | -8.02031 | 1549 ft | 0 kts | 5° |
| 2026-05-06 12:13 | 31.60444 | -8.02031 | 1549 ft | 4 kts | 5° |
| 2026-05-06 12:13 | 31.60551 | -8.02075 | 1543 ft | 14 kts | 286° |
| 2026-05-06 12:13 | 31.60552 | -8.02088 | 1546 ft | 0 kts | 277° |
| 2026-05-06 12:16 | 31.60567 | -8.02249 | 1549 ft | 57 kts | 276° |
| 2026-05-06 12:16 | 31.60634 | -8.03031 | 1539 ft | 133 kts | 276° |
| 2026-05-06 12:16 | 31.60755 | -8.04292 | 1885 ft | 166 kts | 278° |
| 2026-05-06 12:16 | 31.60915 | -8.05780 | 2386 ft | 194 kts | 277° |
| 2026-05-06 12:17 | 31.61040 | -8.07287 | 3687 ft | 176 kts | 276° |
| 2026-05-06 12:17 | 31.61154 | -8.08709 | 4625 ft | 176 kts | 275° |
| 2026-05-06 12:17 | 31.61278 | -8.10198 | 5171 ft | 195 kts | 275° |
| 2026-05-06 12:17 | 31.61410 | -8.11889 | 5369 ft | 221 kts | 275° |
| 2026-05-06 12:18 | 31.61592 | -8.13769 | 5756 ft | 242 kts | 279° |
| 2026-05-06 12:18 | 31.62396 | -8.15612 | 6065 ft | 271 kts | 316° |
| 2026-05-06 12:18 | 31.64069 | -8.16610 | 7036 ft | 276 kts | 345° |
| 2026-05-06 12:18 | 31.66016 | -8.16635 | 7806 ft | 288 kts | 10° |
| 2026-05-06 12:19 | 31.67855 | -8.15631 | 8554 ft | 300 kts | 37° |
| 2026-05-06 12:19 | 31.69245 | -8.13777 | 9337 ft | 307 kts | 57° |
| 2026-05-06 12:19 | 31.70298 | -8.11575 | 10087 ft | 312 kts | 63° |
| 2026-05-06 12:19 | 31.71289 | -8.09240 | 10484 ft | 331 kts | 64° |
| 2026-05-06 12:20 | 31.72347 | -8.06730 | 10699 ft | 353 kts | 63° |
| 2026-05-06 12:20 | 31.73462 | -8.04150 | 11227 ft | 363 kts | 62° |
| 2026-05-06 12:20 | 31.74635 | -8.01500 | 11937 ft | 367 kts | 62° |
| 2026-05-06 12:20 | 31.75836 | -7.98835 | 12676 ft | 370 kts | 61° |
| 2026-05-06 12:21 | 31.77055 | -7.96158 | 13423 ft | 374 kts | 61° |
| 2026-05-06 12:21 | 31.78296 | -7.93444 | 14102 ft | 378 kts | 61° |
| 2026-05-06 12:21 | 31.79549 | -7.90707 | 14719 ft | 383 kts | 60° |
| 2026-05-06 12:21 | 31.80817 | -7.87936 | 15351 ft | 387 kts | 60° |
| 2026-05-06 12:22 | 31.82100 | -7.85131 | 15970 ft | 392 kts | 60° |
| 2026-05-06 12:22 | 31.83412 | -7.82305 | 16585 ft | 396 kts | 58° |
| 2026-05-06 12:22 | 31.85018 | -7.79665 | 17172 ft | 398 kts | 47° |
| 2026-05-06 12:22 | 31.86881 | -7.77236 | 17796 ft | 402 kts | 45° |
| 2026-05-06 12:23 | 31.88795 | -7.74820 | 18376 ft | 406 kts | 45° |
| 2026-05-06 12:23 | 31.90736 | -7.72374 | 18881 ft | 411 kts | 45° |
| 2026-05-06 12:23 | 31.92684 | -7.69896 | 19398 ft | 415 kts | 45° |
| 2026-05-06 12:23 | 31.94643 | -7.67381 | 19912 ft | 419 kts | 45° |
| 2026-05-06 12:24 | 31.96620 | -7.64826 | 20393 ft | 424 kts | 45° |
| 2026-05-06 12:24 | 31.98612 | -7.62242 | 20888 ft | 428 kts | 45° |
| 2026-05-06 12:24 | 32.00620 | -7.59631 | 21408 ft | 431 kts | 45° |
| 2026-05-06 12:24 | 32.02643 | -7.57002 | 21883 ft | 435 kts | 45° |
| 2026-05-06 12:25 | 32.04685 | -7.54349 | 22355 ft | 439 kts | 45° |
| 2026-05-06 12:25 | 32.06936 | -7.51925 | 22777 ft | 438 kts | 29° |
| 2026-05-06 12:25 | 32.09657 | -7.50376 | 23253 ft | 432 kts | 12° |
| 2026-05-06 12:25 | 32.12579 | -7.49760 | 23699 ft | 424 kts | 355° |
| 2026-05-06 12:26 | 32.15525 | -7.49765 | 24098 ft | 424 kts | 353° |
| 2026-05-06 12:26 | 32.18492 | -7.49838 | 24445 ft | 429 kts | 352° |
| 2026-05-06 12:26 | 32.21484 | -7.49919 | 24797 ft | 432 kts | 352° |
| 2026-05-06 12:26 | 32.24502 | -7.49985 | 25194 ft | 435 kts | 352° |
| 2026-05-06 12:27 | 32.27546 | -7.50033 | 25573 ft | 439 kts | 352° |
| 2026-05-06 12:27 | 32.30607 | -7.50067 | 25942 ft | 442 kts | 352° |
| 2026-05-06 12:27 | 32.33694 | -7.50092 | 26312 ft | 445 kts | 352° |
| 2026-05-06 12:27 | 32.36798 | -7.50113 | 26681 ft | 447 kts | 352° |
| 2026-05-06 12:28 | 32.39918 | -7.50134 | 27040 ft | 450 kts | 353° |
| 2026-05-06 12:28 | 32.43056 | -7.50155 | 27405 ft | 452 kts | 352° |
| 2026-05-06 12:28 | 32.46214 | -7.50176 | 27767 ft | 455 kts | 352° |
| 2026-05-06 12:28 | 32.49344 | -7.50198 | 28114 ft | 457 kts | 352° |
| 2026-05-06 12:29 | 32.52571 | -7.50220 | 28477 ft | 459 kts | 353° |
| 2026-05-06 12:29 | 32.55774 | -7.50243 | 28829 ft | 461 kts | 353° |
| 2026-05-06 12:29 | 32.58987 | -7.50266 | 29173 ft | 463 kts | 353° |
| 2026-05-06 12:29 | 32.62171 | -7.50289 | 29500 ft | 465 kts | 353° |
| 2026-05-06 12:30 | 32.65458 | -7.50309 | 29828 ft | 467 kts | 353° |
| 2026-05-06 12:30 | 32.68715 | -7.50324 | 30136 ft | 469 kts | 353° |
| 2026-05-06 12:30 | 32.71938 | -7.50352 | 30384 ft | 471 kts | 353° |
| 2026-05-06 12:30 | 32.75221 | -7.50387 | 30625 ft | 473 kts | 353° |
| 2026-05-06 12:31 | 32.78521 | -7.50422 | 30857 ft | 475 kts | 353° |
| 2026-05-06 12:31 | 32.81834 | -7.50454 | 31107 ft | 477 kts | 353° |
| 2026-05-06 12:31 | 32.85149 | -7.50485 | 31435 ft | 476 kts | 353° |
| 2026-05-06 12:31 | 32.88455 | -7.50512 | 31789 ft | 475 kts | 353° |
| 2026-05-06 12:32 | 32.91767 | -7.50528 | 32082 ft | 476 kts | 353° |
| 2026-05-06 12:32 | 32.95078 | -7.50539 | 32341 ft | 477 kts | 353° |
| 2026-05-06 12:32 | 32.98400 | -7.50550 | 32603 ft | 478 kts | 353° |
| 2026-05-06 12:32 | 33.01725 | -7.50561 | 32909 ft | 477 kts | 353° |
| 2026-05-06 12:33 | 33.05039 | -7.50573 | 33235 ft | 477 kts | 352° |
| 2026-05-06 12:33 | 33.08356 | -7.50586 | 33521 ft | 477 kts | 352° |
| 2026-05-06 12:33 | 33.11692 | -7.50427 | 33782 ft | 483 kts | 360° |
| 2026-05-06 12:33 | 33.15023 | -7.49682 | 34051 ft | 491 kts | 8° |
| 2026-05-06 12:34 | 33.18321 | -7.48623 | 34331 ft | 491 kts | 10° |
| 2026-05-06 12:34 | 33.21603 | -7.47505 | 34587 ft | 490 kts | 10° |
| 2026-05-06 12:34 | 33.24879 | -7.46377 | 34818 ft | 490 kts | 10° |
| 2026-05-06 12:34 | 33.28159 | -7.45258 | 35050 ft | 490 kts | 10° |
| 2026-05-06 12:35 | 33.31435 | -7.44158 | 35302 ft | 489 kts | 9° |
| 2026-05-06 12:35 | 33.33598 | -7.43439 | 35461 ft | 488 kts | 9° |
| 2026-05-06 12:35 | 33.36873 | -7.42361 | 35691 ft | 488 kts | 9° |
| 2026-05-06 12:35 | 33.40142 | -7.41292 | 35903 ft | 487 kts | 9° |
| 2026-05-06 12:36 | 33.43412 | -7.40224 | 36135 ft | 486 kts | 9° |
| 2026-05-06 12:36 | 33.46673 | -7.39160 | 36354 ft | 486 kts | 9° |
| 2026-05-06 12:36 | 33.49934 | -7.38094 | 36559 ft | 486 kts | 9° |
| 2026-05-06 12:36 | 33.53194 | -7.37027 | 36743 ft | 486 kts | 9° |
| 2026-05-06 12:37 | 33.56455 | -7.35958 | 36945 ft | 485 kts | 9° |
| 2026-05-06 12:37 | 33.59710 | -7.34889 | 37159 ft | 485 kts | 9° |
| 2026-05-06 12:37 | 33.62960 | -7.33821 | 37379 ft | 484 kts | 9° |
| 2026-05-06 12:37 | 33.66203 | -7.32753 | 37612 ft | 483 kts | 9° |
| 2026-05-06 12:38 | 33.69445 | -7.31686 | 37795 ft | 483 kts | 9° |
| 2026-05-06 12:38 | 33.72687 | -7.30619 | 37939 ft | 483 kts | 9° |
| 2026-05-06 12:38 | 33.79184 | -7.28477 | 37992 ft | 484 kts | 9° |
| 2026-05-06 12:39 | 33.85674 | -7.26333 | 38021 ft | 484 kts | 9° |
| 2026-05-06 12:39 | 33.92203 | -7.24175 | 38025 ft | 489 kts | 9° |
| 2026-05-06 12:40 | 33.98780 | -7.21996 | 37935 ft | 486 kts | 9° |
| 2026-05-06 12:40 | 34.05214 | -7.19851 | 37984 ft | 477 kts | 9° |
| 2026-05-06 12:41 | 34.11604 | -7.17728 | 37994 ft | 475 kts | 9° |
| 2026-05-06 12:41 | 34.17980 | -7.15609 | 38001 ft | 475 kts | 9° |
| 2026-05-06 12:42 | 34.24364 | -7.13483 | 37996 ft | 477 kts | 9° |
| 2026-05-06 12:42 | 34.30770 | -7.11344 | 37995 ft | 479 kts | 9° |
| 2026-05-06 12:43 | 34.37207 | -7.09190 | 37996 ft | 481 kts | 9° |
| 2026-05-06 12:43 | 34.43669 | -7.07025 | 37995 ft | 483 kts | 9° |
| 2026-05-06 12:44 | 34.50156 | -7.04847 | 37993 ft | 485 kts | 9° |
| 2026-05-06 12:44 | 34.56664 | -7.02658 | 37991 ft | 486 kts | 9° |
| 2026-05-06 12:45 | 34.63071 | -6.99877 | 37989 ft | 494 kts | 21° |
| 2026-05-06 12:46 | 34.72270 | -6.94140 | 37988 ft | 495 kts | 23° |
| 2026-05-06 12:46 | 34.78344 | -6.90330 | 37979 ft | 494 kts | 22° |
| 2026-05-06 12:47 | 34.84463 | -6.86549 | 37980 ft | 492 kts | 22° |
| 2026-05-06 12:47 | 34.90571 | -6.82792 | 37977 ft | 491 kts | 22° |
| 2026-05-06 12:48 | 34.96654 | -6.79044 | 37980 ft | 489 kts | 22° |
| 2026-05-06 12:48 | 35.02717 | -6.75298 | 37978 ft | 488 kts | 22° |
| 2026-05-06 12:49 | 35.08761 | -6.71557 | 37980 ft | 487 kts | 22° |
| 2026-05-06 12:49 | 35.14795 | -6.67815 | 37968 ft | 486 kts | 22° |
| 2026-05-06 12:50 | 35.20818 | -6.64074 | 37976 ft | 485 kts | 22° |
| 2026-05-06 12:50 | 35.26837 | -6.60329 | 37982 ft | 485 kts | 22° |
| 2026-05-06 12:51 | 35.32859 | -6.56576 | 37977 ft | 486 kts | 22° |
| 2026-05-06 12:51 | 35.38885 | -6.52813 | 37978 ft | 486 kts | 22° |
| 2026-05-06 12:52 | 35.44918 | -6.49040 | 37975 ft | 487 kts | 22° |
| 2026-05-06 12:52 | 35.50925 | -6.45155 | 37978 ft | 489 kts | 24° |
| 2026-05-06 12:53 | 35.56924 | -6.41206 | 37976 ft | 490 kts | 24° |
| 2026-05-06 12:53 | 35.62909 | -6.37277 | 37979 ft | 490 kts | 24° |
| 2026-05-06 12:54 | 35.68929 | -6.33331 | 37974 ft | 491 kts | 24° |
| 2026-05-06 12:54 | 35.74956 | -6.29375 | 37973 ft | 491 kts | 24° |
| 2026-05-06 12:55 | 35.80984 | -6.25424 | 37966 ft | 491 kts | 23° |
| 2026-05-06 12:55 | 35.87285 | -6.22541 | 37981 ft | 479 kts | 8° |
| 2026-05-06 12:56 | 35.93771 | -6.20702 | 37977 ft | 478 kts | 7° |
| 2026-05-06 12:56 | 36.00256 | -6.18893 | 37968 ft | 478 kts | 7° |
| 2026-05-06 12:57 | 36.06732 | -6.17025 | 37975 ft | 478 kts | 8° |
| 2026-05-06 12:57 | 36.13200 | -6.15121 | 37964 ft | 478 kts | 8° |
| 2026-05-06 12:58 | 36.19665 | -6.13207 | 37965 ft | 477 kts | 8° |
| 2026-05-06 12:58 | 36.26124 | -6.11293 | 37960 ft | 477 kts | 8° |
| 2026-05-06 12:59 | 36.32576 | -6.09381 | 37966 ft | 477 kts | 8° |
| 2026-05-06 12:59 | 36.38987 | -6.07478 | 37956 ft | 477 kts | 8° |
| 2026-05-06 13:00 | 36.45443 | -6.05558 | 37958 ft | 477 kts | 8° |
| 2026-05-06 13:00 | 36.51653 | -6.03709 | 37949 ft | 477 kts | 8° |
| 2026-05-06 13:01 | 36.58105 | -6.01784 | 37946 ft | 477 kts | 8° |
| 2026-05-06 13:01 | 36.64561 | -5.99854 | 37943 ft | 477 kts | 8° |
| 2026-05-06 13:02 | 36.71012 | -5.97923 | 37942 ft | 477 kts | 8° |
| 2026-05-06 13:02 | 36.77461 | -5.95989 | 37943 ft | 477 kts | 8° |
| 2026-05-06 13:03 | 36.83911 | -5.94051 | 37942 ft | 477 kts | 8° |
| 2026-05-06 13:03 | 36.90358 | -5.92111 | 37939 ft | 476 kts | 8° |
| 2026-05-06 13:04 | 36.96802 | -5.90168 | 37945 ft | 476 kts | 8° |
| 2026-05-06 13:04 | 37.02849 | -5.88342 | 37930 ft | 476 kts | 8° |
| 2026-05-06 13:05 | 37.09291 | -5.86393 | 37933 ft | 476 kts | 8° |
| 2026-05-06 13:05 | 37.15724 | -5.84444 | 37938 ft | 476 kts | 8° |
| 2026-05-06 13:06 | 37.22156 | -5.82492 | 37932 ft | 475 kts | 8° |
| 2026-05-06 13:06 | 37.28579 | -5.80538 | 37937 ft | 475 kts | 8° |
| 2026-05-06 13:07 | 37.35002 | -5.78581 | 37940 ft | 475 kts | 8° |
| 2026-05-06 13:07 | 37.41420 | -5.76615 | 37935 ft | 475 kts | 10° |
| 2026-05-06 13:08 | 37.47608 | -5.73526 | 37947 ft | 482 kts | 21° |
| 2026-05-06 13:08 | 37.53629 | -5.69788 | 37933 ft | 482 kts | 22° |
| 2026-05-06 13:09 | 37.59641 | -5.66047 | 37925 ft | 482 kts | 22° |
| 2026-05-06 13:09 | 37.65674 | -5.62356 | 37928 ft | 482 kts | 21° |
| 2026-05-06 13:10 | 37.71711 | -5.58689 | 37920 ft | 482 kts | 21° |
| 2026-05-06 13:10 | 37.77751 | -5.55016 | 37916 ft | 481 kts | 21° |
| 2026-05-06 13:11 | 37.83745 | -5.51363 | 37930 ft | 481 kts | 21° |
| 2026-05-06 13:11 | 37.89777 | -5.47677 | 37927 ft | 482 kts | 21° |
| 2026-05-06 13:12 | 37.95812 | -5.43983 | 37918 ft | 482 kts | 21° |
| 2026-05-06 13:12 | 38.01847 | -5.40281 | 37918 ft | 482 kts | 21° |
| 2026-05-06 13:13 | 38.07874 | -5.36577 | 37924 ft | 481 kts | 21° |
| 2026-05-06 13:13 | 38.13902 | -5.32867 | 37929 ft | 481 kts | 22° |
| 2026-05-06 13:14 | 38.19923 | -5.29154 | 37927 ft | 481 kts | 22° |
| 2026-05-06 13:14 | 38.25944 | -5.25434 | 37915 ft | 481 kts | 22° |
| 2026-05-06 13:15 | 38.31955 | -5.21713 | 37927 ft | 480 kts | 22° |
| 2026-05-06 13:15 | 38.37957 | -5.17990 | 37937 ft | 480 kts | 22° |
| 2026-05-06 13:16 | 38.43967 | -5.14256 | 37922 ft | 480 kts | 22° |
| 2026-05-06 13:16 | 38.49966 | -5.10522 | 37928 ft | 480 kts | 22° |
| 2026-05-06 13:17 | 38.56062 | -5.07146 | 37927 ft | 476 kts | 17° |
| 2026-05-06 13:17 | 38.62238 | -5.04078 | 37929 ft | 476 kts | 17° |
| 2026-05-06 13:18 | 38.68411 | -5.00985 | 37934 ft | 477 kts | 17° |
| 2026-05-06 13:18 | 38.74526 | -4.97858 | 37931 ft | 477 kts | 18° |
| 2026-05-06 13:19 | 38.80680 | -4.94686 | 37932 ft | 477 kts | 18° |
| 2026-05-06 13:19 | 38.86842 | -4.91506 | 37941 ft | 477 kts | 18° |
| 2026-05-06 13:20 | 38.92998 | -4.88326 | 37936 ft | 477 kts | 18° |
| 2026-05-06 13:20 | 38.99158 | -4.85138 | 37925 ft | 477 kts | 18° |
| 2026-05-06 13:21 | 39.05312 | -4.81944 | 37939 ft | 477 kts | 18° |
| 2026-05-06 13:21 | 39.10422 | -4.79285 | 37933 ft | 476 kts | 18° |
| 2026-05-06 13:22 | 39.16563 | -4.76083 | 37934 ft | 476 kts | 18° |
| 2026-05-06 13:22 | 39.22695 | -4.72884 | 37929 ft | 475 kts | 18° |
| 2026-05-06 13:23 | 39.29818 | -4.69174 | 37928 ft | 475 kts | 18° |
| 2026-05-06 13:23 | 39.34941 | -4.66500 | 37937 ft | 474 kts | 18° |
| 2026-05-06 13:24 | 39.41050 | -4.63305 | 37942 ft | 473 kts | 18° |
| 2026-05-06 13:24 | 39.47153 | -4.60107 | 37941 ft | 473 kts | 18° |
| 2026-05-06 13:25 | 39.53248 | -4.56906 | 37946 ft | 472 kts | 18° |
| 2026-05-06 13:25 | 39.59327 | -4.53707 | 37951 ft | 471 kts | 18° |
| 2026-05-06 13:26 | 39.65403 | -4.50504 | 37945 ft | 471 kts | 18° |
| 2026-05-06 13:26 | 39.71473 | -4.47298 | 37946 ft | 471 kts | 18° |
| 2026-05-06 13:27 | 39.77536 | -4.44090 | 37951 ft | 470 kts | 18° |
| 2026-05-06 13:27 | 39.83593 | -4.40863 | 37950 ft | 470 kts | 19° |
| 2026-05-06 13:28 | 39.89642 | -4.37609 | 37953 ft | 471 kts | 19° |
| 2026-05-06 13:28 | 39.95696 | -4.34350 | 37958 ft | 471 kts | 19° |
| 2026-05-06 13:29 | 40.01717 | -4.30924 | 37959 ft | 473 kts | 21° |
| 2026-05-06 13:29 | 40.07621 | -4.27274 | 37952 ft | 473 kts | 22° |
| 2026-05-06 13:30 | 40.13568 | -4.23583 | 37950 ft | 473 kts | 21° |
| 2026-05-06 13:30 | 40.19562 | -4.19900 | 37961 ft | 473 kts | 21° |
| 2026-05-06 13:31 | 40.25483 | -4.16276 | 37959 ft | 473 kts | 21° |
| 2026-05-06 13:31 | 40.31444 | -4.12624 | 37966 ft | 473 kts | 21° |
| 2026-05-06 13:32 | 40.37044 | -4.09186 | 37963 ft | 472 kts | 21° |
| 2026-05-06 13:32 | 40.42932 | -4.05562 | 37971 ft | 472 kts | 21° |
| 2026-05-06 13:33 | 40.48871 | -4.01900 | 37970 ft | 471 kts | 21° |
| 2026-05-06 13:33 | 40.54803 | -3.98235 | 37985 ft | 470 kts | 21° |
| 2026-05-06 13:34 | 40.60716 | -3.94574 | 37995 ft | 469 kts | 21° |
| 2026-05-06 13:34 | 40.66622 | -3.90911 | 37989 ft | 469 kts | 21° |
| 2026-05-06 13:35 | 40.72520 | -3.87246 | 37998 ft | 468 kts | 21° |
| 2026-05-06 13:35 | 40.78400 | -3.83584 | 37979 ft | 467 kts | 21° |
| 2026-05-06 13:36 | 40.84267 | -3.79923 | 37998 ft | 466 kts | 21° |
| 2026-05-06 13:36 | 40.90130 | -3.76258 | 37992 ft | 466 kts | 21° |
| 2026-05-06 13:37 | 40.95983 | -3.72592 | 37991 ft | 465 kts | 21° |
| 2026-05-06 13:37 | 41.01824 | -3.68925 | 37974 ft | 464 kts | 21° |
| 2026-05-06 13:38 | 41.07666 | -3.65251 | 37972 ft | 465 kts | 21° |
| 2026-05-06 13:38 | 41.13504 | -3.61572 | 37971 ft | 464 kts | 21° |
| 2026-05-06 13:39 | 41.19400 | -3.58084 | 37983 ft | 463 kts | 18° |
| 2026-05-06 13:39 | 41.25382 | -3.54883 | 37976 ft | 464 kts | 18° |
| 2026-05-06 13:40 | 41.31374 | -3.51660 | 37973 ft | 465 kts | 18° |
| 2026-05-06 13:40 | 41.37359 | -3.48385 | 37976 ft | 466 kts | 18° |
| 2026-05-06 13:41 | 41.43352 | -3.45086 | 37976 ft | 466 kts | 18° |
| 2026-05-06 13:41 | 41.49343 | -3.41784 | 37973 ft | 466 kts | 19° |
| 2026-05-06 13:42 | 41.55332 | -3.38484 | 37979 ft | 465 kts | 19° |
| 2026-05-06 13:42 | 41.61273 | -3.35206 | 37976 ft | 465 kts | 18° |
| 2026-05-06 13:43 | 41.67247 | -3.31902 | 37974 ft | 464 kts | 19° |
| 2026-05-06 13:43 | 41.73205 | -3.28600 | 37973 ft | 463 kts | 19° |
| 2026-05-06 13:44 | 41.79152 | -3.25297 | 37974 ft | 462 kts | 19° |
| 2026-05-06 13:44 | 41.85086 | -3.21995 | 37973 ft | 461 kts | 19° |
| 2026-05-06 13:45 | 41.91006 | -3.18693 | 37973 ft | 460 kts | 19° |
| 2026-05-06 13:45 | 41.99857 | -3.13745 | 37976 ft | 459 kts | 19° |
| 2026-05-06 13:46 | 42.05751 | -3.10442 | 37980 ft | 458 kts | 19° |
| 2026-05-06 13:46 | 42.11633 | -3.07139 | 37987 ft | 458 kts | 19° |
| 2026-05-06 13:47 | 42.17513 | -3.03830 | 37977 ft | 458 kts | 19° |
| 2026-05-06 13:47 | 42.23389 | -3.00517 | 37990 ft | 457 kts | 19° |
| 2026-05-06 13:48 | 42.29255 | -2.97203 | 37992 ft | 458 kts | 19° |
| 2026-05-06 13:48 | 42.35130 | -2.93876 | 37983 ft | 458 kts | 19° |
| 2026-05-06 13:49 | 42.41000 | -2.90546 | 37997 ft | 458 kts | 19° |
| 2026-05-06 13:49 | 42.46839 | -2.87072 | 37997 ft | 460 kts | 24° |
| 2026-05-06 13:50 | 42.52456 | -2.82901 | 38007 ft | 461 kts | 26° |
| 2026-05-06 13:50 | 42.58032 | -2.78576 | 38022 ft | 461 kts | 26° |
| 2026-05-06 13:51 | 42.63581 | -2.74312 | 38020 ft | 462 kts | 26° |
| 2026-05-06 13:51 | 42.69186 | -2.70047 | 38021 ft | 462 kts | 26° |
| 2026-05-06 13:52 | 42.74825 | -2.65764 | 38025 ft | 461 kts | 26° |
| 2026-05-06 13:52 | 42.80428 | -2.61501 | 38022 ft | 461 kts | 26° |
| 2026-05-06 13:53 | 42.85986 | -2.57261 | 38026 ft | 461 kts | 26° |
| 2026-05-06 13:53 | 42.91580 | -2.52983 | 38027 ft | 460 kts | 26° |
| 2026-05-06 13:54 | 42.97159 | -2.48707 | 38032 ft | 460 kts | 26° |
| 2026-05-06 13:54 | 43.02737 | -2.44424 | 38034 ft | 459 kts | 26° |
| 2026-05-06 13:55 | 43.08303 | -2.40141 | 38049 ft | 459 kts | 26° |
| 2026-05-06 13:55 | 43.13864 | -2.35853 | 38045 ft | 459 kts | 26° |
| 2026-05-06 13:56 | 43.19421 | -2.31559 | 38037 ft | 458 kts | 26° |
| 2026-05-06 13:56 | 43.24973 | -2.27259 | 38035 ft | 458 kts | 26° |
| 2026-05-06 13:57 | 43.30502 | -2.22968 | 38056 ft | 458 kts | 26° |
| 2026-05-06 13:57 | 43.36041 | -2.18661 | 38043 ft | 458 kts | 26° |
| 2026-05-06 13:58 | 43.41577 | -2.14346 | 38049 ft | 457 kts | 26° |
| 2026-05-06 13:58 | 43.47113 | -2.10022 | 38047 ft | 457 kts | 26° |
| 2026-05-06 13:59 | 43.52650 | -2.05688 | 38037 ft | 458 kts | 26° |
| 2026-05-06 13:59 | 43.58184 | -2.01347 | 38034 ft | 458 kts | 27° |
| 2026-05-06 14:00 | 43.63144 | -1.97449 | 38025 ft | 458 kts | 27° |
| 2026-05-06 14:00 | 43.68671 | -1.93097 | 38022 ft | 458 kts | 27° |
| 2026-05-06 14:01 | 43.74209 | -1.88727 | 38010 ft | 458 kts | 27° |
| 2026-05-06 14:01 | 43.79705 | -1.84379 | 38012 ft | 458 kts | 27° |
| 2026-05-06 14:02 | 43.85241 | -1.79991 | 38010 ft | 459 kts | 27° |
| 2026-05-06 14:02 | 43.90776 | -1.75593 | 38004 ft | 459 kts | 27° |
| 2026-05-06 14:03 | 43.96315 | -1.71182 | 38003 ft | 459 kts | 27° |
| 2026-05-06 14:03 | 44.01856 | -1.66760 | 37999 ft | 459 kts | 27° |
| 2026-05-06 14:04 | 44.07396 | -1.62329 | 37995 ft | 459 kts | 27° |
| 2026-05-06 14:04 | 44.12932 | -1.57892 | 37994 ft | 459 kts | 27° |
| 2026-05-06 14:05 | 44.18463 | -1.53449 | 37991 ft | 459 kts | 27° |
| 2026-05-06 14:05 | 44.23987 | -1.49003 | 37983 ft | 458 kts | 27° |
| 2026-05-06 14:06 | 44.29502 | -1.44554 | 37976 ft | 458 kts | 27° |
| 2026-05-06 14:06 | 44.35008 | -1.40102 | 37969 ft | 457 kts | 27° |
| 2026-05-06 14:07 | 44.40506 | -1.35647 | 37972 ft | 457 kts | 28° |
| 2026-05-06 14:07 | 44.45997 | -1.31187 | 37970 ft | 456 kts | 28° |
| 2026-05-06 14:08 | 44.50558 | -1.27476 | 37971 ft | 456 kts | 28° |
| 2026-05-06 14:08 | 44.56038 | -1.23008 | 37971 ft | 456 kts | 28° |
| 2026-05-06 14:09 | 44.61515 | -1.18533 | 37965 ft | 456 kts | 28° |
| 2026-05-06 14:09 | 44.66998 | -1.14042 | 37966 ft | 456 kts | 28° |
| 2026-05-06 14:10 | 44.72473 | -1.09548 | 37968 ft | 456 kts | 28° |
| 2026-05-06 14:10 | 44.77937 | -1.05054 | 37964 ft | 456 kts | 28° |
| 2026-05-06 14:11 | 44.83407 | -1.00544 | 37960 ft | 456 kts | 28° |
| 2026-05-06 14:11 | 44.88878 | -0.96024 | 37962 ft | 456 kts | 28° |
| 2026-05-06 14:12 | 44.94349 | -0.91493 | 37971 ft | 456 kts | 28° |
| 2026-05-06 14:12 | 44.99829 | -0.86945 | 37963 ft | 457 kts | 28° |
| 2026-05-06 14:13 | 45.05269 | -0.82420 | 37962 ft | 457 kts | 28° |
| 2026-05-06 14:13 | 45.10740 | -0.77859 | 37949 ft | 457 kts | 28° |
| 2026-05-06 14:14 | 45.16217 | -0.73283 | 37939 ft | 457 kts | 28° |
| 2026-05-06 14:14 | 45.21684 | -0.68704 | 37936 ft | 456 kts | 29° |
| 2026-05-06 14:15 | 45.27147 | -0.64118 | 37931 ft | 456 kts | 29° |
| 2026-05-06 14:15 | 45.31964 | -0.60067 | 37931 ft | 456 kts | 29° |
| 2026-05-06 14:16 | 45.37417 | -0.55470 | 37929 ft | 456 kts | 29° |
| 2026-05-06 14:16 | 45.42867 | -0.50865 | 37945 ft | 456 kts | 29° |
| 2026-05-06 14:17 | 45.48335 | -0.46236 | 37924 ft | 458 kts | 29° |
| 2026-05-06 14:17 | 45.53809 | -0.41589 | 37935 ft | 458 kts | 29° |
| 2026-05-06 14:18 | 45.59279 | -0.36935 | 37935 ft | 457 kts | 29° |
| 2026-05-06 14:18 | 45.64734 | -0.32284 | 37937 ft | 456 kts | 29° |
| 2026-05-06 14:19 | 45.70129 | -0.27521 | 37941 ft | 455 kts | 31° |
| 2026-05-06 14:19 | 45.75404 | -0.22625 | 37941 ft | 454 kts | 31° |
| 2026-05-06 14:20 | 45.80731 | -0.17664 | 37928 ft | 454 kts | 31° |
| 2026-05-06 14:20 | 45.85990 | -0.12788 | 37926 ft | 453 kts | 31° |
| 2026-05-06 14:21 | 45.91281 | -0.07885 | 37895 ft | 452 kts | 31° |
| 2026-05-06 14:21 | 45.96567 | -0.02979 | 37917 ft | 452 kts | 31° |
| 2026-05-06 14:22 | 46.01857 | 0.01944 | 37910 ft | 454 kts | 31° |
| 2026-05-06 14:22 | 46.07157 | 0.06887 | 37924 ft | 454 kts | 31° |
| 2026-05-06 14:23 | 46.12456 | 0.11842 | 37920 ft | 455 kts | 31° |
| 2026-05-06 14:23 | 46.17770 | 0.16822 | 37933 ft | 456 kts | 32° |
| 2026-05-06 14:24 | 46.23095 | 0.21825 | 37916 ft | 458 kts | 32° |
| 2026-05-06 14:24 | 46.28434 | 0.26853 | 37921 ft | 458 kts | 32° |
| 2026-05-06 14:25 | 46.33765 | 0.31885 | 37925 ft | 458 kts | 32° |
| 2026-05-06 14:25 | 46.39099 | 0.36931 | 37923 ft | 458 kts | 32° |
| 2026-05-06 14:26 | 46.44391 | 0.41951 | 37928 ft | 457 kts | 32° |
| 2026-05-06 14:26 | 46.49711 | 0.47008 | 37928 ft | 457 kts | 32° |
| 2026-05-06 14:27 | 46.55083 | 0.51938 | 37932 ft | 456 kts | 25° |
| 2026-05-06 14:27 | 46.61030 | 0.54926 | 37952 ft | 452 kts | 11° |
| 2026-05-06 14:28 | 46.67180 | 0.56852 | 37927 ft | 452 kts | 11° |
| 2026-05-06 14:28 | 46.73333 | 0.58789 | 37932 ft | 452 kts | 11° |
| 2026-05-06 14:29 | 46.79473 | 0.60798 | 37926 ft | 452 kts | 11° |
| 2026-05-06 14:29 | 46.85605 | 0.62835 | 37924 ft | 451 kts | 11° |
| 2026-05-06 14:30 | 46.88638 | 0.63845 | 37905 ft | 440 kts | 11° |
| 2026-05-06 14:30 | 46.91579 | 0.64825 | 37911 ft | 427 kts | 11° |
| 2026-05-06 14:30 | 46.97307 | 0.66732 | 37932 ft | 422 kts | 11° |
| 2026-05-06 14:31 | 47.03079 | 0.68655 | 37944 ft | 430 kts | 11° |
| 2026-05-06 14:31 | 47.09024 | 0.69803 | 37935 ft | 432 kts | 2° |
| 2026-05-06 14:32 | 47.15052 | 0.70349 | 37943 ft | 435 kts | 2° |
| 2026-05-06 14:32 | 47.21098 | 0.70915 | 37932 ft | 436 kts | 2° |
| 2026-05-06 14:33 | 47.27125 | 0.71533 | 37921 ft | 429 kts | 2° |
| 2026-05-06 14:33 | 47.33018 | 0.72153 | 37934 ft | 424 kts | 2° |
| 2026-05-06 14:34 | 47.38906 | 0.72773 | 37946 ft | 424 kts | 2° |
| 2026-05-06 14:34 | 47.44802 | 0.73393 | 37944 ft | 425 kts | 2° |
| 2026-05-06 14:35 | 47.50691 | 0.74355 | 37928 ft | 428 kts | 13° |
| 2026-05-06 14:35 | 47.56328 | 0.77036 | 37933 ft | 430 kts | 18° |
| 2026-05-06 14:36 | 47.59157 | 0.78492 | 37660 ft | 432 kts | 18° |
| 2026-05-06 14:36 | 47.62046 | 0.79966 | 35440 ft | 448 kts | 18° |
| 2026-05-06 14:36 | 47.65008 | 0.81452 | 33612 ft | 451 kts | 18° |
| 2026-05-06 14:36 | 47.67987 | 0.82931 | 31507 ft | 449 kts | 18° |
| 2026-05-06 14:37 | 47.70927 | 0.84383 | 29467 ft | 442 kts | 18° |
| 2026-05-06 14:37 | 47.73828 | 0.85813 | 27288 ft | 435 kts | 18° |
| 2026-05-06 14:37 | 47.76673 | 0.87217 | 25283 ft | 428 kts | 18° |
| 2026-05-06 14:37 | 47.79477 | 0.88597 | 23363 ft | 421 kts | 17° |
| 2026-05-06 14:38 | 47.82313 | 0.89482 | 21457 ft | 412 kts | 5° |
| 2026-05-06 14:38 | 47.85135 | 0.89632 | 19703 ft | 401 kts | 356° |
| 2026-05-06 14:38 | 47.87867 | 0.89161 | 18197 ft | 390 kts | 344° |
| 2026-05-06 14:38 | 47.90324 | 0.88145 | 18019 ft | 347 kts | 343° |
| 2026-05-06 14:39 | 47.92556 | 0.87256 | 17727 ft | 317 kts | 343° |
| 2026-05-06 14:39 | 47.94623 | 0.86449 | 17625 ft | 303 kts | 343° |
| 2026-05-06 14:39 | 47.96653 | 0.85658 | 17349 ft | 303 kts | 344° |
| 2026-05-06 14:39 | 47.98719 | 0.84850 | 17111 ft | 310 kts | 344° |
| 2026-05-06 14:40 | 48.00816 | 0.84029 | 16852 ft | 313 kts | 344° |
| 2026-05-06 14:40 | 48.02918 | 0.83207 | 16598 ft | 312 kts | 344° |
| 2026-05-06 14:40 | 48.05012 | 0.82387 | 16344 ft | 311 kts | 344° |
| 2026-05-06 14:40 | 48.07100 | 0.81569 | 16085 ft | 310 kts | 344° |
| 2026-05-06 14:41 | 48.09185 | 0.80750 | 15833 ft | 309 kts | 344° |
| 2026-05-06 14:41 | 48.11252 | 0.79938 | 15576 ft | 306 kts | 344° |
| 2026-05-06 14:41 | 48.13296 | 0.79135 | 15325 ft | 302 kts | 344° |
| 2026-05-06 14:41 | 48.15316 | 0.78340 | 15072 ft | 298 kts | 344° |
| 2026-05-06 14:42 | 48.17308 | 0.77555 | 14812 ft | 294 kts | 345° |
| 2026-05-06 14:42 | 48.19275 | 0.76780 | 14588 ft | 291 kts | 345° |
| 2026-05-06 14:42 | 48.21229 | 0.76009 | 14352 ft | 289 kts | 345° |
| 2026-05-06 14:42 | 48.23170 | 0.75242 | 14094 ft | 288 kts | 345° |
| 2026-05-06 14:43 | 48.25070 | 0.74491 | 13876 ft | 286 kts | 345° |
| 2026-05-06 14:43 | 48.26990 | 0.73735 | 13609 ft | 284 kts | 345° |
| 2026-05-06 14:43 | 48.28894 | 0.72987 | 13336 ft | 282 kts | 345° |
| 2026-05-06 14:43 | 48.30782 | 0.72243 | 13064 ft | 280 kts | 345° |
| 2026-05-06 14:44 | 48.32662 | 0.71503 | 12806 ft | 278 kts | 345° |
| 2026-05-06 14:44 | 48.34529 | 0.70767 | 12537 ft | 277 kts | 345° |
| 2026-05-06 14:44 | 48.36393 | 0.70031 | 12285 ft | 276 kts | 345° |
| 2026-05-06 14:45 | 48.40101 | 0.68566 | 11775 ft | 275 kts | 345° |
| 2026-05-06 14:45 | 48.41950 | 0.67834 | 11516 ft | 275 kts | 345° |
| 2026-05-06 14:45 | 48.43794 | 0.67104 | 11266 ft | 274 kts | 345° |
| 2026-05-06 14:45 | 48.45638 | 0.66374 | 11019 ft | 274 kts | 345° |
| 2026-05-06 14:46 | 48.47479 | 0.65643 | 10769 ft | 273 kts | 345° |
| 2026-05-06 14:46 | 48.49317 | 0.64914 | 10528 ft | 273 kts | 345° |
| 2026-05-06 14:46 | 48.51152 | 0.64185 | 10290 ft | 272 kts | 345° |
| 2026-05-06 14:46 | 48.52983 | 0.63457 | 10041 ft | 272 kts | 345° |
| 2026-05-06 14:47 | 48.54809 | 0.62730 | 9789 ft | 271 kts | 345° |
| 2026-05-06 14:47 | 48.56621 | 0.62007 | 9518 ft | 268 kts | 345° |
| 2026-05-06 14:47 | 48.58420 | 0.61289 | 9255 ft | 266 kts | 345° |
| 2026-05-06 14:47 | 48.60200 | 0.60578 | 8988 ft | 264 kts | 345° |
| 2026-05-06 14:48 | 48.61966 | 0.59873 | 8723 ft | 261 kts | 345° |
| 2026-05-06 14:48 | 48.63713 | 0.59175 | 8457 ft | 259 kts | 345° |
| 2026-05-06 14:48 | 48.65445 | 0.58482 | 8200 ft | 256 kts | 345° |
| 2026-05-06 14:48 | 48.67156 | 0.57797 | 7940 ft | 254 kts | 345° |
| 2026-05-06 14:49 | 48.68855 | 0.57116 | 7675 ft | 252 kts | 345° |
| 2026-05-06 14:49 | 48.70540 | 0.56440 | 7435 ft | 249 kts | 345° |
| 2026-05-06 14:49 | 48.72207 | 0.55771 | 7182 ft | 247 kts | 345° |
| 2026-05-06 14:49 | 48.73860 | 0.55107 | 6944 ft | 245 kts | 345° |
| 2026-05-06 14:50 | 48.75508 | 0.54444 | 6689 ft | 244 kts | 345° |
| 2026-05-06 14:50 | 48.77146 | 0.53787 | 6436 ft | 242 kts | 345° |
| 2026-05-06 14:50 | 48.78765 | 0.53136 | 6183 ft | 241 kts | 345° |
| 2026-05-06 14:50 | 48.80411 | 0.52668 | 5926 ft | 241 kts | 352° |
| 2026-05-06 14:51 | 48.82076 | 0.52400 | 5660 ft | 240 kts | 354° |
| 2026-05-06 14:51 | 48.83734 | 0.52166 | 5409 ft | 240 kts | 354° |
| 2026-05-06 14:51 | 48.85394 | 0.51930 | 5151 ft | 239 kts | 354° |
| 2026-05-06 14:51 | 48.87050 | 0.51689 | 4901 ft | 239 kts | 355° |
| 2026-05-06 14:52 | 48.88703 | 0.51443 | 4643 ft | 238 kts | 354° |
| 2026-05-06 14:52 | 49.12886 | 0.46922 | 4579 ft | 229 kts | 358° |
| 2026-05-06 14:52 | 49.22115 | 0.45756 | 4529 ft | 221 kts | 357° |
| 2026-05-06 14:52 | 49.23604 | 0.45654 | 4455 ft | 213 kts | 357° |
| 2026-05-06 14:53 | 49.25078 | 0.45480 | 4308 ft | 207 kts | 347° |
| 2026-05-06 14:53 | 49.26241 | 0.44338 | 4165 ft | 202 kts | 311° |
| 2026-05-06 14:53 | 49.27072 | 0.42689 | 4128 ft | 190 kts | 309° |
| 2026-05-06 14:53 | 49.27808 | 0.41072 | 4040 ft | 181 kts | 307° |
| 2026-05-06 14:54 | 49.28471 | 0.39474 | 3837 ft | 174 kts | 303° |
| 2026-05-06 14:54 | 49.29041 | 0.37897 | 3625 ft | 164 kts | 301° |
| 2026-05-06 14:54 | 49.29550 | 0.36382 | 3385 ft | 156 kts | 301° |
| 2026-05-06 14:54 | 49.30048 | 0.34888 | 3191 ft | 159 kts | 301° |
| 2026-05-06 14:55 | 49.30550 | 0.33384 | 2964 ft | 158 kts | 301° |
| 2026-05-06 14:55 | 49.31048 | 0.31886 | 2756 ft | 157 kts | 301° |
| 2026-05-06 14:55 | 49.31541 | 0.30404 | 2553 ft | 155 kts | 300° |
| 2026-05-06 14:55 | 49.32033 | 0.28928 | 2336 ft | 157 kts | 299° |
| 2026-05-06 14:56 | 49.32506 | 0.27433 | 2119 ft | 150 kts | 300° |
| 2026-05-06 14:56 | 49.32985 | 0.26071 | 1931 ft | 146 kts | 302° |
| 2026-05-06 14:56 | 49.33445 | 0.24693 | 1721 ft | 143 kts | 300° |
| 2026-05-06 14:56 | 49.33888 | 0.23346 | 1519 ft | 139 kts | 301° |
| 2026-05-06 14:57 | 49.34181 | 0.22467 | 1370 ft | 139 kts | 302° |
| 2026-05-06 14:57 | 49.34633 | 0.21140 | 1182 ft | 143 kts | 300° |
| 2026-05-06 14:57 | 49.35080 | 0.19779 | 1005 ft | 142 kts | 301° |
| 2026-05-06 14:57 | 49.35526 | 0.18423 | 766 ft | 142 kts | 298° |
| 2026-05-06 14:58 | 49.35975 | 0.17091 | 555 ft | 138 kts | 300° |
| 2026-05-06 14:58 | 49.36391 | 0.15887 | 487 ft | 87 kts | 298° |
| 2026-05-06 14:58 | 49.36356 | 0.15580 | 483 ft | 19 kts | 162° |
| 2026-05-06 14:58 | 49.36274 | 0.15717 | 487 ft | 15 kts | 128° |
| 2026-05-06 14:59 | 49.36202 | 0.15859 | 481 ft | 22 kts | 146° |
| 2026-05-06 14:59 | 49.36145 | 0.15820 | 487 ft | 7 kts | 272° |
| 2026-05-06 14:59 | 49.36151 | 0.15795 | 487 ft | 0 kts | 298° |